Wellington, FL

10:58 AM EDT on May 05, 2015 (GMT -0400)
Indigo Weather | | Change Station
CLOSE
Current Station
Personal Weather Station
Location: Wellington, FL
Elevation: 23 ft
Nearby Weather Stations

Elev 23 ft 26.67 °N, 80.26 °W | Updated 8 minutes ago

Overcast
Overcast
75.0 °F
Feels Like 76 °F
N
1.0
Wind Variable Wind from NNE
Gusts 6.0 mph

Today
High -- | Low -- °F
--% Chance of Precip.
Yesterday
High -- | Low -- °F
Precip. -- in
6:40 AM 7:55 PM
Full, 98% visible
Pressure 30.11 in
Visibility 7.0 miles
Clouds Mostly Cloudy 2400 ft
Mostly Cloudy 3200 ft
Overcast 10000 ft
Heat Index 76 °F
Dew Point 68 °F
Humidity 78%
Rainfall 0.02 in
Snow Depth Not available.
UV 1 out of 12
Pollen .60 out of 12
Air Quality Not available.
Flu Activity Local Activity
METAR KPBI 051253Z 07016G26KT 7SM -RA BKN024 BKN032 OVC100 23/19 A3011 RMK AO2 PK WND 07026/1246 SLP195 P0001 T02280194 $

More Conditions Fewer Conditions

Pressure 30.11 in
Visibility 7.0 miles
Clouds Mostly Cloudy 2400 ft
Mostly Cloudy 3200 ft
Overcast 10000 ft
Heat Index 76 °F
Dew Point 68 °F
Humidity 78%
Rainfall 0.02 in
Snow Depth Not available.
UV 1 out of 12
Pollen .60 out of 12
Air Quality Not available.
Flu Activity Local Activity
METAR KPBI 051253Z 07016G26KT 7SM -RA BKN024 BKN032 OVC100 23/19 A3011 RMK AO2 PK WND 07026/1246 SLP195 P0001 T02280194 $

More Conditions Fewer Conditions

Nowcast | as of 10:43 am EDT on May 5, 2015

Showers and isolated thunderstorms continue mainly across the Atlantic waters and Metro areas of Broward and Miami-Dade counties late this morning. Isolated light to moderate showers are also beginning to spread further west across the interior. Main concerns will continue to be brief heavy downpours...occasional cloud to ground lightning and winds of 10 to 20 mph with occasional higher gusts.

×

10-Day Weather Forecast

Almanac

Astronomy

May. 05, 2015 Rise Set
Actual Time
Civil Twilight
Nautical Twilight
Astronomical Twilight
Moon
Length of Visible Light
Length of Day
Tomorrow will be .
, % of the Moon is Illuminated

Today's Extremes

State Highs State Lows

Community

WunderPhotos

Upload Photos

1,818,910 photos uploaded!

WunderBlogs® & News

Nearby

Air Quality

  Air Quality AQ Index Pollutant
Not available.

Snow Depth

Station Depth Elevation

Earthquake Activity

City Distance Mag. Time & Date
Minimum magnitude displayed is 2.5.

Coastal Water Temperatures

Place Temperature

Stations

Nearby Weather Stations

Station Location Temp. Windchill Dew Point Humidity Wind Precip. Elev Updated Type